This is the latest recevied weather packets stored in our database for station/object IVARAZ6. If no packets are shown the sender has not sent any weather packets the latest 10 day(s).
| Time | Temp. | Humidity | Pressure | Rain* | Wind** | Luminosity | Snow |
|---|---|---|---|---|---|---|---|
| 1778310083 | 20.56° C | 71% | 1014.4 hPa | 0 mm | - | 454 W/m² | - |
| 1778309780 | 20° C | 73% | 1014.4 hPa | 0 mm | - | 436 W/m² | - |
| 1778308586 | 17.78° C | 79% | 1014.3 hPa | 0 mm | - | 381 W/m² | - |
| 1778308289 | 17.78° C | 80% | 1014.2 hPa | 0 mm | - | 366 W/m² | - |
| 1778307680 | 17.22° C | 82% | 1014.2 hPa | 0 mm | - | 346 W/m² | - |
| 1778306480 | 16.67° C | 80% | 1014.2 hPa | 0 mm | - | 287 W/m² | - |
| 1778306183 | 16.67° C | 81% | 1014.2 hPa | 0 mm | - | 267 W/m² | - |
| 1778304983 | 15.56° C | 83% | 1014.2 hPa | 0 mm | - | 125 W/m² | - |
| 1778304080 | 15° C | 84% | 1014 hPa | 0 mm | - | 35 W/m² | - |
| 1778303483 | 15° C | 83% | 1013.9 hPa | 0 mm | - | 30 W/m² | - |
| 1778302286 | 14.44° C | 83% | 1013.9 hPa | 0 mm | - | 21 W/m² | - |
| 1778301980 | 14.44° C | 83% | 1013.9 hPa | 0 mm | - | 19 W/m² | - |
| 1778301383 | 14.44° C | 83% | 1013.7 hPa | 0 mm | - | 16 W/m² | - |
| 1778301080 | 14.44° C | 83% | 1013.7 hPa | 0 mm | - | 14 W/m² | - |
| 1778300780 | 14.44° C | 83% | 1013.7 hPa | 0 mm | - | 11 W/m² | - |
| 1778299880 | 14.44° C | 84% | 1013.6 hPa | 0 mm | - | 5 W/m² | - |
| 1778299283 | 14.44° C | 84% | 1013.8 hPa | 0 mm | - | 0 W/m² | - |
| 1778298683 | 14.44° C | 83% | 1013.7 hPa | 0 mm | - | 0 W/m² | - |
| 1778297783 | 14.44° C | 83% | 1013.6 hPa | 0 mm | - | 0 W/m² | - |
| 1778296283 | 15° C | 82% | 1013.6 hPa | 0 mm | - | 0 W/m² | - |
| 1778294780 | 15° C | 82% | 1013.7 hPa | 0 mm | - | 0 W/m² | - |
| 1778294480 | 14.44° C | 83% | 1013.7 hPa | 0 mm | - | 0 W/m² | - |
| 1778294183 | 15° C | 83% | 1013.7 hPa | 0 mm | - | 0 W/m² | - |
| 1778292686 | 15° C | 81% | 1013.6 hPa | 0 mm | - | 0 W/m² | - |
| 1778291782 | 15° C | 82% | 1013.4 hPa | 0 mm | - | 0 W/m² | - |
* Rain latest hour (hover to see other rain measurements)
** Current wind speed in m/s (hover to see current wind gust speed)